Dominia — ICFW — position and weather

sailwx.info

Track history (hours):
 
Tides and Currents Weather Stations Pressure Air Temp Water Temp Dewpoint Dewpoint Depression Visibility Wind Speed Wind Dir Waves Ship Positions

Dominia

Last reported at 2015-May-11 02:32 UTC. Time now 2015-May-22 11:36 UTC.
Position N 31°24' E 032°20'.
Warning: this ship's position is 11 days out of date.

Length 176 m; draft 10.6 m.

Type: Ship (hazmat cat A). MMSI: 247273400.

Date/timePositionNaut miles runAvg speedWind from/ knotsBaromVisibWave heightAir tempDewpointWater temp
2015-May-11 02:32N 31°24' E 032°20'0 0.0
2015-May-10 20:05N 31°24' E 032°20'0 0.0
2015-May-10 19:32N 31°24' E 032°20'0 0.0
2015-May-10 18:32N 31°24' E 032°20'0 0.0
2015-May-10 16:32N 31°24' E 032°20'0 0.0
2015-May-10 15:32N 31°24' E 032°20'0 0.0
2015-May-10 14:29N 31°24' E 032°20'125 3.9
2015-May-09 06:33N 33°24' E 033°00'1212.0
2015-May-09 05:33N 33°35' E 033°03'1212.0
2015-May-09 04:33N 33°47' E 033°06'1211.8
2015-May-09 03:30N 33°59' E 033°10'1111.9
2015-May-09 02:33N 34°10' E 033°12'1211.8
2015-May-09 01:33N 34°22' E 033°15'1212.2
2015-May-09 00:33N 34°33' E 033°18'9 8.7
2015-May-08 23:33N 34°42' E 033°20'0 0.0
2015-May-08 22:33N 34°42' E 033°20'0 0.0
2015-May-08 21:33N 34°42' E 033°20'0 0.2
2015-May-08 20:33N 34°42' E 033°20'1 0.2
2015-May-08 17:24N 34°43' E 033°19'  
2015-May-06 12:33N 34°43' E 033°19'1 1.3
2015-May-06 11:26N 34°41' E 033°20'0 0.0
2015-May-06 10:08N 34°41' E 033°20'0 0.0
2015-May-06 08:23N 34°41' E 033°20'0 0.0
2015-May-06 06:26N 34°41' E 033°20'0 0.0
2015-May-06 05:32N 34°41' E 033°20'0 0.0
2015-May-06 04:32N 34°41' E 033°20'0 0.0
2015-May-06 03:32N 34°41' E 033°20'0 0.0
2015-May-06 02:32N 34°41' E 033°20'0 0.0
2015-May-06 01:32N 34°41' E 033°20'0 0.0
2015-May-06 00:17N 34°41' E 033°20'0 0.0
2015-May-05 23:29N 34°41' E 033°20'0 0.0
2015-May-05 22:26N 34°41' E 033°20'0 0.0
2015-May-05 21:20N 34°41' E 033°20'0 0.0
2015-May-05 20:32N 34°41' E 033°20'0 0.0
2015-May-05 19:32N 34°41' E 033°20'0 0.0
2015-May-05 18:32N 34°41' E 033°20'0 0.0
2015-May-05 17:32N 34°41' E 033°21'0 0.0
2015-May-05 16:32N 34°41' E 033°21'0 0.0
2015-May-05 15:32N 34°41' E 033°21'0 0.0
2015-May-05 14:32N 34°41' E 033°21'0 0.0
2015-May-05 13:32N 34°41' E 033°21'0 0.0
2015-May-05 12:32N 34°41' E 033°21'0 0.0
2015-May-05 11:32N 34°41' E 033°20'0 0.0
2015-May-05 10:32N 34°41' E 033°20'0 0.0
2015-May-05 09:32N 34°41' E 033°20'0 0.0
2015-May-05 08:32N 34°41' E 033°20'0 0.0
2015-May-05 07:32N 34°41' E 033°20'0 0.0
2015-May-05 05:32N 34°41' E 033°20'0 0.0
2015-May-05 04:29N 34°41' E 033°20'0 0.0
2015-May-05 03:32N 34°41' E 033°20'0 0.0
2015-May-05 02:32N 34°41' E 033°20'0 0.0
2015-May-05 01:32N 34°41' E 033°20'0 0.0
2015-May-05 00:32N 34°41' E 033°20'0 0.0
2015-May-04 23:32N 34°41' E 033°20'0 0.0
2015-May-04 22:32N 34°41' E 033°20'0 0.0
2015-May-04 21:32N 34°41' E 033°20'0 0.1
2015-May-04 20:32N 34°41' E 033°20'0 0.1
2015-May-04 19:32N 34°41' E 033°21'0 0.0
2015-May-04 18:32N 34°41' E 033°21'0 0.0
2015-May-04 17:32N 34°41' E 033°21'0 0.0
2015-May-04 16:32N 34°41' E 033°21'0 0.0
2015-May-04 15:32N 34°41' E 033°21'0 0.0
2015-May-04 14:32N 34°41' E 033°21'0 0.0
2015-May-04 13:32N 34°41' E 033°21'0 0.0
2015-May-04 12:32N 34°42' E 033°20'0 0.0
2015-May-04 11:32N 34°41' E 033°20'0 0.0
2015-May-04 10:32N 34°41' E 033°20'0 0.0
2015-May-04 09:32N 34°41' E 033°20'0 0.0
2015-May-04 08:29N 34°41' E 033°20'0 0.0
2015-May-04 07:32N 34°41' E 033°20'0 0.0
2015-May-04 06:32N 34°41' E 033°20'0 0.0
2015-May-04 05:32N 34°41' E 033°20'0 0.0
2015-May-04 04:32N 34°41' E 033°20'0 0.0
2015-May-04 03:32N 34°41' E 033°20'0 0.0
2015-May-04 02:32N 34°41' E 033°20'0 0.0
2015-May-04 01:32N 34°41' E 033°20'0 0.0
2015-May-04 00:32N 34°41' E 033°20'0 0.0
2015-May-03 23:26N 34°41' E 033°20'0 0.0
2015-May-03 22:32N 34°41' E 033°20'0 0.0
2015-May-03 21:23N 34°41' E 033°20'0 0.1
2015-May-03 20:23N 34°41' E 033°20'0 0.0
2015-May-03 19:32N 34°41' E 033°21'0 0.0
2015-May-03 18:32N 34°41' E 033°21'0 0.0
2015-May-03 17:32N 34°41' E 033°21'0 0.0
2015-May-03 16:32N 34°41' E 033°21'0 0.0
2015-May-03 15:32N 34°41' E 033°21'0 0.0
2015-May-03 14:32N 34°41' E 033°21'0 0.0
2015-May-03 13:32N 34°41' E 033°21'0 0.0
2015-May-03 12:32N 34°41' E 033°21'0 0.0
2015-May-03 11:32N 34°41' E 033°20'0 0.0
2015-May-03 10:32N 34°41' E 033°20'0 0.1
2015-May-03 09:32N 34°41' E 033°20'0 0.0
2015-May-03 08:32N 34°41' E 033°20'0 0.1
2015-May-03 07:32N 34°41' E 033°20'0 0.1
2015-May-03 06:34N 34°41' E 033°20'7 7.0
2015-May-03 05:34N 34°37' E 033°14'1010.1
2015-May-03 04:33N 34°32' E 033°03'1211.6
2015-May-03 03:33N 34°30' E 032°49'1311.8
2015-May-03 02:28N 34°31' E 032°34'14312.0
2015-May-02 14:33N 35°14' E 029°47'11512.2
2015-May-02 05:08N 35°49' E 027°33'812.5
2015-May-02 04:31N 35°55' E 027°27'3612.0
2015-May-02 01:33N 36°20' E 026°55'1211.9
2015-May-02 00:31N 36°29' E 026°45'1111.7
2015-May-01 23:33N 36°38' E 026°35'1212.1
2015-May-01 22:33N 36°46' E 026°25'1212.3
2015-May-01 21:33N 36°55' E 026°15'1312.1
2015-May-01 20:30N 37°06' E 026°07'1112.0
2015-May-01 19:33N 37°17' E 026°01'1212.2
2015-May-01 18:33N 37°27' E 025°54'1212.0
2015-May-01 17:34N 37°38' E 025°48'1211.5
2015-May-01 16:33N 37°49' E 025°42'  
Track history (hours):
 
Tides and Currents Weather Stations Pressure Air Temp Water Temp Dewpoint Dewpoint Depression Visibility Wind Speed Wind Dir Waves Ship Positions

Dominia

Last reported at 2015-May-11 02:32 UTC. Time now 2015-May-22 11:36 UTC.
Position N 31°24' E 032°20'.
Warning: this ship's position is 11 days out of date.

Length 176 m; draft 10.6 m.

Type: Ship (hazmat cat A). MMSI: 247273400.

Date/timePositionNaut miles runAvg speedWind from/ knotsBaromVisibWave heightAir tempDewpointWater temp
2015-May-11 02:32N 31°24' E 032°20'0 0.0
2015-May-10 20:05N 31°24' E 032°20'0 0.0
2015-May-10 19:32N 31°24' E 032°20'0 0.0
2015-May-10 18:32N 31°24' E 032°20'0 0.0
2015-May-10 16:32N 31°24' E 032°20'0 0.0
2015-May-10 15:32N 31°24' E 032°20'0 0.0
2015-May-10 14:29N 31°24' E 032°20'125 3.9
2015-May-09 06:33N 33°24' E 033°00'1212.0
2015-May-09 05:33N 33°35' E 033°03'1212.0
2015-May-09 04:33N 33°47' E 033°06'1211.8
2015-May-09 03:30N 33°59' E 033°10'1111.9
2015-May-09 02:33N 34°10' E 033°12'1211.8
2015-May-09 01:33N 34°22' E 033°15'1212.2
2015-May-09 00:33N 34°33' E 033°18'9 8.7
2015-May-08 23:33N 34°42' E 033°20'0 0.0
2015-May-08 22:33N 34°42' E 033°20'0 0.0
2015-May-08 21:33N 34°42' E 033°20'0 0.2
2015-May-08 20:33N 34°42' E 033°20'1 0.2
2015-May-08 17:24N 34°43' E 033°19'  
2015-May-06 12:33N 34°43' E 033°19'1 1.3
2015-May-06 11:26N 34°41' E 033°20'0 0.0
2015-May-06 10:08N 34°41' E 033°20'0 0.0
2015-May-06 08:23N 34°41' E 033°20'0 0.0
2015-May-06 06:26N 34°41' E 033°20'0 0.0
2015-May-06 05:32N 34°41' E 033°20'0 0.0
2015-May-06 04:32N 34°41' E 033°20'0 0.0
2015-May-06 03:32N 34°41' E 033°20'0 0.0
2015-May-06 02:32N 34°41' E 033°20'0 0.0
2015-May-06 01:32N 34°41' E 033°20'0 0.0
2015-May-06 00:17N 34°41' E 033°20'0 0.0
2015-May-05 23:29N 34°41' E 033°20'0 0.0
2015-May-05 22:26N 34°41' E 033°20'0 0.0
2015-May-05 21:20N 34°41' E 033°20'0 0.0
2015-May-05 20:32N 34°41' E 033°20'0 0.0
2015-May-05 19:32N 34°41' E 033°20'0 0.0
2015-May-05 18:32N 34°41' E 033°20'0 0.0
2015-May-05 17:32N 34°41' E 033°21'0 0.0
2015-May-05 16:32N 34°41' E 033°21'0 0.0
2015-May-05 15:32N 34°41' E 033°21'0 0.0
2015-May-05 14:32N 34°41' E 033°21'0 0.0
2015-May-05 13:32N 34°41' E 033°21'0 0.0
2015-May-05 12:32N 34°41' E 033°21'0 0.0
2015-May-05 11:32N 34°41' E 033°20'0 0.0
2015-May-05 10:32N 34°41' E 033°20'0 0.0
2015-May-05 09:32N 34°41' E 033°20'0 0.0
2015-May-05 08:32N 34°41' E 033°20'0 0.0
2015-May-05 07:32N 34°41' E 033°20'0 0.0
2015-May-05 05:32N 34°41' E 033°20'0 0.0
2015-May-05 04:29N 34°41' E 033°20'0 0.0
2015-May-05 03:32N 34°41' E 033°20'0 0.0
2015-May-05 02:32N 34°41' E 033°20'0 0.0
2015-May-05 01:32N 34°41' E 033°20'0 0.0
2015-May-05 00:32N 34°41' E 033°20'0 0.0
2015-May-04 23:32N 34°41' E 033°20'0 0.0
2015-May-04 22:32N 34°41' E 033°20'0 0.0
2015-May-04 21:32N 34°41' E 033°20'0 0.1
2015-May-04 20:32N 34°41' E 033°20'0 0.1
2015-May-04 19:32N 34°41' E 033°21'0 0.0
2015-May-04 18:32N 34°41' E 033°21'0 0.0
2015-May-04 17:32N 34°41' E 033°21'0 0.0
2015-May-04 16:32N 34°41' E 033°21'0 0.0
2015-May-04 15:32N 34°41' E 033°21'0 0.0
2015-May-04 14:32N 34°41' E 033°21'0 0.0
2015-May-04 13:32N 34°41' E 033°21'0 0.0
2015-May-04 12:32N 34°42' E 033°20'0 0.0
2015-May-04 11:32N 34°41' E 033°20'0 0.0
2015-May-04 10:32N 34°41' E 033°20'0 0.0
2015-May-04 09:32N 34°41' E 033°20'0 0.0
2015-May-04 08:29N 34°41' E 033°20'0 0.0
2015-May-04 07:32N 34°41' E 033°20'0 0.0
2015-May-04 06:32N 34°41' E 033°20'0 0.0
2015-May-04 05:32N 34°41' E 033°20'0 0.0
2015-May-04 04:32N 34°41' E 033°20'0 0.0
2015-May-04 03:32N 34°41' E 033°20'0 0.0
2015-May-04 02:32N 34°41' E 033°20'0 0.0
2015-May-04 01:32N 34°41' E 033°20'0 0.0
2015-May-04 00:32N 34°41' E 033°20'0 0.0
2015-May-03 23:26N 34°41' E 033°20'0 0.0
2015-May-03 22:32N 34°41' E 033°20'0 0.0
2015-May-03 21:23N 34°41' E 033°20'0 0.1
2015-May-03 20:23N 34°41' E 033°20'0 0.0
2015-May-03 19:32N 34°41' E 033°21'0 0.0
2015-May-03 18:32N 34°41' E 033°21'0 0.0
2015-May-03 17:32N 34°41' E 033°21'0 0.0
2015-May-03 16:32N 34°41' E 033°21'0 0.0
2015-May-03 15:32N 34°41' E 033°21'0 0.0
2015-May-03 14:32N 34°41' E 033°21'0 0.0
2015-May-03 13:32N 34°41' E 033°21'0 0.0
2015-May-03 12:32N 34°41' E 033°21'0 0.0
2015-May-03 11:32N 34°41' E 033°20'0 0.0
2015-May-03 10:32N 34°41' E 033°20'0 0.1
2015-May-03 09:32N 34°41' E 033°20'0 0.0
2015-May-03 08:32N 34°41' E 033°20'0 0.1
2015-May-03 07:32N 34°41' E 033°20'0 0.1
2015-May-03 06:34N 34°41' E 033°20'7 7.0
2015-May-03 05:34N 34°37' E 033°14'1010.1
2015-May-03 04:33N 34°32' E 033°03'1211.6
2015-May-03 03:33N 34°30' E 032°49'1311.8
2015-May-03 02:28N 34°31' E 032°34'14312.0
2015-May-02 14:33N 35°14' E 029°47'11512.2
2015-May-02 05:08N 35°49' E 027°33'812.5
2015-May-02 04:31N 35°55' E 027°27'3612.0
2015-May-02 01:33N 36°20' E 026°55'1211.9
2015-May-02 00:31N 36°29' E 026°45'1111.7
2015-May-01 23:33N 36°38' E 026°35'1212.1
2015-May-01 22:33N 36°46' E 026°25'1212.3
2015-May-01 21:33N 36°55' E 026°15'1312.1
2015-May-01 20:30N 37°06' E 026°07'1112.0
2015-May-01 19:33N 37°17' E 026°01'1212.2
2015-May-01 18:33N 37°27' E 025°54'1212.0
2015-May-01 17:34N 37°38' E 025°48'1211.5
2015-May-01 16:33N 37°49' E 025°42'  

Dump ship's entire track history